Time;durP1;ratioP1;P1;durP2;ratioP2;P2;SDS_P1;SDS_P2;PMS_P1;PMS_P2;Temp;Humidity;BMP_temperature;BMP_pressure;BME280_temperature;BME280_humidity;BME280_pressure;Samples;Min_cycle;Max_cycle;Signal;HPM_P1;HPM_P2
2021/03/07 17:47:06;;;;;;;72.63;50.15;;;;;;;23.49;23.90;98515.56;5090894;27;20340;-75
2021/03/07 17:49:32;;;;;;;73.75;48.78;;;;;;;23.38;24.19;98516.66;5088352;28;20040;-77
2021/03/07 17:51:57;;;;;;;72.10;48.25;;;;;;;23.27;24.04;98517.31;5083827;28;20028;-76
2021/03/07 17:54:24;;;;;;;69.90;45.90;;;;;;;23.16;24.24;98514.34;5089253;28;20024;-75
2021/03/07 17:56:49;;;;;;;69.07;43.35;;;;;;;23.04;23.89;98509.00;5086390;28;20028;-76
2021/03/07 17:59:15;;;;;;;71.53;44.00;;;;;;;22.97;23.96;98517.31;5091976;28;20028;-76
2021/03/07 18:01:40;;;;;;;69.68;42.78;;;;;;;22.89;24.00;98503.22;5088242;28;20028;-75
2021/03/07 18:04:06;;;;;;;68.45;42.15;;;;;;;22.84;23.99;98503.53;5053064;28;20024;-74
2021/03/07 18:06:31;;;;;;;69.75;42.33;;;;;;;22.82;23.75;98508.72;5090102;28;20700;-82
2021/03/07 18:08:57;;;;;;;66.20;40.00;;;;;;;22.81;24.02;98509.88;5085893;28;20024;-73
2021/03/07 18:11:22;;;;;;;68.25;40.75;;;;;;;22.77;23.81;98508.25;5087341;28;20073;-75
2021/03/07 18:13:48;;;;;;;68.53;40.75;;;;;;;22.76;23.97;98507.41;5086770;28;20701;-73
2021/03/07 18:16:13;;;;;;;65.82;40.95;;;;;;;22.74;23.90;98498.59;5086470;28;20017;-75
2021/03/07 18:18:38;;;;;;;65.28;39.72;;;;;;;22.72;23.85;98500.97;5087871;28;20032;-74
2021/03/07 18:21:04;;;;;;;61.70;39.42;;;;;;;22.71;23.85;98502.16;5087835;28;20380;-74
2021/03/07 18:23:30;;;;;;;65.68;37.15;;;;;;;22.70;23.84;98511.72;5086216;28;20042;-76
2021/03/07 18:25:55;;;;;;;60.40;36.28;;;;;;;22.69;23.97;98502.53;5087453;28;20024;-76
2021/03/07 18:28:22;;;;;;;97.85;66.75;;;;;;;22.70;23.72;98508.91;5086576;28;20020;-76
2021/03/07 18:30:48;;;;;;;77.55;47.08;;;;;;;22.68;23.79;98506.53;5069565;28;20128;-73
2021/03/07 18:33:13;;;;;;;80.88;46.05;;;;;;;22.66;23.65;98506.09;5085873;28;20025;-73
2021/03/07 18:35:39;;;;;;;68.72;42.33;;;;;;;22.65;23.78;98498.88;5085918;28;20020;-75
2021/03/07 18:38:05;;;;;;;69.32;43.45;;;;;;;22.64;23.69;98504.84;5087188;28;20021;-74
2021/03/07 18:40:31;;;;;;;75.82;43.72;;;;;;;22.62;23.61;98502.44;5087253;28;20157;-74
2021/03/07 18:42:59;;;;;;;91.00;49.13;;;;;;;22.60;23.53;98511.19;5087010;28;20073;-74
2021/03/07 18:45:24;;;;;;;86.72;47.33;;;;;;;22.59;23.77;98506.78;5052247;28;20071;-74
2021/03/07 18:47:50;;;;;;;75.15;44.28;;;;;;;22.58;23.76;98502.38;5065632;28;20025;-73
2021/03/07 18:50:15;;;;;;;81.97;45.33;;;;;;;22.57;23.71;98499.94;5066326;28;20032;-75
2021/03/07 18:52:41;;;;;;;82.05;45.72;;;;;;;22.56;23.68;98499.16;5058264;28;20024;-74
2021/03/07 18:55:06;;;;;;;66.22;40.33;;;;;;;22.56;23.67;98498.34;5066212;28;20021;-75
2021/03/07 18:57:32;;;;;;;82.65;49.70;;;;;;;22.57;23.55;98497.16;5054883;28;20017;-75
2021/03/07 18:59:57;;;;;;;87.03;56.25;;;;;;;22.55;23.63;98496.72;5053521;28;20025;-76
2021/03/07 19:02:24;;;;;;;101.43;59.20;;;;;;;22.56;23.46;98501.94;5053808;28;20424;-75
2021/03/07 19:04:50;;;;;;;81.85;50.08;;;;;;;22.56;23.49;98498.34;5052910;28;20016;-75
2021/03/07 19:07:16;;;;;;;91.75;54.83;;;;;;;22.56;23.44;98501.94;5053658;28;20121;-75
2021/03/07 19:09:42;;;;;;;94.78;56.88;;;;;;;22.59;23.26;98500.38;5053722;28;20045;-79
2021/03/07 19:12:08;;;;;;;93.40;55.22;;;;;;;22.60;23.43;98499.19;5053269;28;20027;-71
2021/03/07 19:14:34;;;;;;;87.75;49.97;;;;;;;22.62;23.35;98496.84;5053178;28;20470;-74
2021/03/07 19:16:59;;;;;;;87.40;49.55;;;;;;;22.63;23.28;98492.84;5053957;28;20499;-71
2021/03/07 19:19:25;;;;;;;84.88;47.17;;;;;;;22.64;23.36;98502.03;5053352;28;20017;-70
2021/03/07 19:21:54;;;;;;;79.55;46.55;;;;;;;22.64;23.39;98496.44;5052773;28;20409;-74
2021/03/07 19:24:19;;;;;;;76.07;43.40;;;;;;;22.64;23.13;98499.25;5050416;28;20553;-76
2021/03/07 19:26:45;;;;;;;78.65;44.90;;;;;;;22.64;23.24;98494.47;5052564;28;20116;-74
2021/03/07 19:29:11;;;;;;;74.05;42.35;;;;;;;22.64;23.14;98493.66;5053163;28;20104;-73
2021/03/07 19:31:37;;;;;;;146.50;104.50;;;;;;;22.63;23.15;98492.03;5053297;28;20048;-69
2021/03/07 19:34:02;;;;;;;104.18;72.35;;;;;;;22.63;23.10;98489.25;5052778;28;20041;-69
2021/03/07 19:36:28;;;;;;;93.15;63.53;;;;;;;22.63;23.13;98494.84;5052413;28;20029;-69
2021/03/07 19:38:54;;;;;;;94.57;63.20;;;;;;;22.62;22.99;98496.03;5052831;28;20036;-69
2021/03/07 19:41:20;;;;;;;95.47;62.47;;;;;;;22.62;23.10;98490.47;5053031;28;20075;-71
2021/03/07 19:43:45;;;;;;;77.60;48.70;;;;;;;22.62;23.00;98490.47;5052535;28;20143;-74
2021/03/07 19:46:11;;;;;;;73.80;46.28;;;;;;;22.62;23.18;98498.84;5077816;28;20036;-72
2021/03/07 19:48:37;;;;;;;68.88;42.42;;;;;;;22.62;23.00;98501.63;5092802;28;20508;-70
2021/03/07 19:51:03;;;;;;;63.67;40.38;;;;;;;22.60;22.77;98499.19;5079331;28;20032;-75
2021/03/07 19:53:31;;;;;;;61.83;39.13;;;;;;;22.60;22.50;98496.41;5061097;28;20691;-76
2021/03/07 19:55:57;;;;;;;69.30;42.05;;;;;;;22.58;22.87;98494.00;5063514;28;20696;-75
2021/03/07 19:58:22;;;;;;;65.05;40.58;;;;;;;22.60;22.87;98499.19;5067437;28;20113;-71
2021/03/07 20:00:48;;;;;;;70.05;40.35;;;;;;;22.60;22.73;98500.03;5067055;28;20040;-72
2021/03/07 20:03:13;;;;;;;65.40;39.63;;;;;;;22.65;22.86;98498.06;5062292;28;20036;-70
2021/03/07 20:05:44;;;;;;;62.60;36.03;;;;;;;22.67;22.54;98496.50;5067234;28;20028;-70
2021/03/07 20:08:09;;;;;;;58.47;35.35;;;;;;;22.66;22.46;98488.50;5066731;28;20111;-70
2021/03/07 20:10:36;;;;;;;56.25;32.33;;;;;;;22.65;22.34;98489.69;5065672;28;20103;-70
2021/03/07 20:13:02;;;;;;;50.47;30.40;;;;;;;22.65;22.49;98487.69;5061154;28;20081;-74
2021/03/07 20:15:30;;;;;;;59.78;35.15;;;;;;;22.65;22.48;98493.28;5036446;28;20044;-72
2021/03/07 20:17:56;;;;;;;53.85;32.25;;;;;;;22.66;22.54;98492.09;5060631;28;20059;-69
2021/03/07 20:20:22;;;;;;;52.67;32.28;;;;;;;22.65;22.56;98498.88;5067038;28;20071;-66
2021/03/07 20:22:47;;;;;;;53.25;31.10;;;;;;;22.64;22.32;98497.28;5066177;28;20012;-68
2021/03/07 20:25:15;;;;;;;53.40;31.80;;;;;;;22.65;22.46;98500.84;5066847;28;20248;-67
2021/03/07 20:27:42;;;;;;;65.95;43.15;;;;;;;22.64;22.34;98500.06;5067220;28;20702;-70
2021/03/07 20:30:09;;;;;;;50.67;30.33;;;;;;;22.65;22.54;98500.84;5067684;28;20032;-69
2021/03/07 20:32:34;;;;;;;54.42;32.60;;;;;;;22.65;22.55;98503.66;5065359;28;20031;-70
2021/03/07 20:35:00;;;;;;;51.85;31.05;;;;;;;22.64;22.51;98493.66;5056437;28;20404;-69
2021/03/07 20:37:25;;;;;;;56.95;33.28;;;;;;;22.64;22.55;98502.03;5056364;28;20064;-70
2021/03/07 20:39:51;;;;;;;55.10;33.70;;;;;;;22.64;22.48;98497.28;5064539;28;20039;-69
2021/03/07 20:46:09;;;;;;;50.55;31.17;;;;;;;22.84;22.54;98477.56;5082913;27;20535;-40
2021/03/07 20:48:35;;;;;;;50.65;31.40;;;;;;;22.88;22.49;98475.63;5062171;28;20032;-42
2021/03/07 20:51:02;;;;;;;46.63;28.60;;;;;;;22.90;22.29;98465.69;5060779;28;20499;-41
2021/03/07 20:53:28;;;;;;;46.42;28.40;;;;;;;22.94;22.18;98470.53;5060753;28;20579;-40
2021/03/07 20:55:54;;;;;;;46.78;28.75;;;;;;;22.97;22.31;98466.97;5053445;28;20032;-38
2021/03/07 20:58:19;;;;;;;49.30;29.98;;;;;;;22.98;22.02;98463.78;5052246;28;20013;-44
2021/03/07 21:00:45;;;;;;;50.30;30.45;;;;;;;23.02;22.20;98466.63;5055859;28;20028;-46
2021/03/07 21:03:10;;;;;;;48.95;30.58;;;;;;;23.03;22.00;98465.44;5062001;28;20083;-39
2021/03/07 21:05:35;;;;;;;46.65;30.13;;;;;;;23.03;22.01;98463.44;5060935;28;20060;-42
2021/03/07 21:08:01;;;;;;;47.30;28.70;;;;;;;23.03;21.87;98460.66;5061925;28;20077;-47
2021/03/07 21:10:27;;;;;;;52.30;30.75;;;;;;;23.05;22.00;98463.06;5060644;28;20119;-40
2021/03/07 21:12:52;;;;;;;47.22;29.85;;;;;;;23.05;21.98;98465.84;5060988;28;20306;-39
2021/03/07 21:15:18;;;;;;;46.35;30.02;;;;;;;23.05;22.05;98465.84;5057668;28;20637;-41
2021/03/07 21:17:44;;;;;;;46.38;27.95;;;;;;;23.06;21.79;98459.06;5049828;28;20068;-39
2021/03/07 21:20:10;;;;;;;45.08;27.83;;;;;;;23.07;21.84;98460.69;5053111;28;20214;-41
2021/03/07 21:22:37;;;;;;;44.97;28.42;;;;;;;23.12;21.83;98463.16;5061526;28;20561;-40
2021/03/07 21:25:03;;;;;;;42.92;26.58;;;;;;;23.16;21.86;98460.41;5060228;28;20037;-40
2021/03/07 21:27:29;;;;;;;44.97;28.10;;;;;;;23.21;21.80;98457.28;5060807;28;20021;-41
2021/03/07 21:29:54;;;;;;;41.42;25.77;;;;;;;23.26;21.72;98461.75;5061365;28;20032;-41
2021/03/07 21:32:20;;;;;;;43.20;24.52;;;;;;;23.30;21.81;98457.00;5061441;28;20652;-41
2021/03/07 21:34:45;;;;;;;40.67;25.15;;;;;;;23.37;21.62;98459.06;5060368;28;20040;-41
2021/03/07 21:37:10;;;;;;;42.85;25.52;;;;;;;23.40;21.60;98453.53;5053745;28;20035;-41
2021/03/07 21:39:36;;;;;;;37.08;24.40;;;;;;;23.46;21.46;98460.38;5051812;28;20051;-40
2021/03/07 21:42:01;;;;;;;39.28;24.05;;;;;;;23.51;21.38;98455.63;5056178;28;20039;-39
2021/03/07 21:44:27;;;;;;;37.50;23.85;;;;;;;23.55;21.41;98456.47;5068104;28;20044;-41
2021/03/07 21:46:52;;;;;;;38.08;23.88;;;;;;;23.59;21.34;98451.69;5076536;28;20448;-41
2021/03/07 21:49:17;;;;;;;37.05;22.23;;;;;;;23.61;21.35;98452.13;5081185;28;20027;-40
2021/03/07 21:51:43;;;;;;;36.80;23.00;;;;;;;23.64;21.24;98454.94;5099065;27;20459;-41
2021/03/07 21:54:09;;;;;;;35.83;21.90;;;;;;;23.67;21.24;98455.38;5094437;28;20036;-41
2021/03/07 21:56:34;;;;;;;36.72;21.95;;;;;;;23.68;21.27;98454.19;5091264;28;20103;-41
2021/03/07 21:59:02;;;;;;;38.03;22.33;;;;;;;23.70;21.22;98451.81;5090986;28;20390;-41
2021/03/07 22:01:27;;;;;;;36.70;22.17;;;;;;;23.70;21.28;98455.44;5088112;28;20020;-44
2021/03/07 22:03:53;;;;;;;37.40;22.92;;;;;;;23.71;21.04;98459.84;5090834;28;20016;-40
2021/03/07 22:06:18;;;;;;;38.03;23.00;;;;;;;23.70;21.13;98452.63;5088930;28;20031;-40
2021/03/07 22:08:45;;;;;;;37.63;22.70;;;;;;;23.71;21.01;98456.22;5090558;28;20036;-43
2021/03/07 22:11:10;;;;;;;34.15;21.88;;;;;;;23.70;21.07;98454.59;5083287;28;20024;-45
2021/03/07 22:13:36;;;;;;;36.50;21.55;;;;;;;23.69;21.11;98448.22;5083599;28;20031;-43
2021/03/07 22:16:01;;;;;;;39.55;22.05;;;;;;;23.70;20.91;98451.81;5083062;28;20040;-41
2021/03/07 22:18:27;;;;;;;36.80;22.02;;;;;;;23.70;21.06;98452.63;5086572;28;20024;-41
2021/03/07 22:20:53;;;;;;;35.40;21.45;;;;;;;23.71;20.97;98445.84;5090117;28;20073;-42
2021/03/07 22:23:18;;;;;;;33.75;21.20;;;;;;;23.72;21.01;98449.44;5089742;28;20076;-40
2021/03/07 22:25:43;;;;;;;35.78;20.67;;;;;;;23.72;20.90;98441.84;5090195;28;20509;-43
2021/03/07 22:28:10;;;;;;;34.83;20.17;;;;;;;23.74;20.99;98447.03;5089366;28;20115;-40
2021/03/07 22:30:35;;;;;;;33.65;20.45;;;;;;;23.76;20.96;98437.09;5079893;28;20012;-41
2021/03/07 22:33:01;;;;;;;31.33;18.77;;;;;;;23.79;20.90;98438.31;5083736;28;20395;-42
2021/03/07 22:35:26;;;;;;;32.42;19.48;;;;;;;23.81;20.93;98443.53;5086109;28;20012;-41
2021/03/07 22:37:52;;;;;;;32.03;18.83;;;;;;;23.83;20.88;98441.94;5088841;28;20057;-41
2021/03/07 22:40:17;;;;;;;31.15;19.60;;;;;;;23.84;20.72;98425.97;5090685;28;20028;-41
2021/03/07 22:42:43;;;;;;;30.83;19.23;;;;;;;23.86;20.73;98441.16;5087674;28;20054;-40
2021/03/07 22:45:09;;;;;;;29.38;18.23;;;;;;;23.87;20.78;98437.19;5090855;28;20056;-41
2021/03/07 22:47:35;;;;;;;29.45;18.98;;;;;;;23.89;20.79;98432.00;5081263;28;20020;-40
2021/03/07 22:50:00;;;;;;;29.42;18.17;;;;;;;23.90;20.71;98433.59;5081546;28;20035;-41
2021/03/07 22:52:25;;;;;;;30.73;18.10;;;;;;;23.92;20.72;98436.00;5083179;28;20034;-40
2021/03/07 22:54:51;;;;;;;29.20;18.08;;;;;;;23.93;20.71;98421.63;5089411;28;20107;-40
2021/03/07 22:57:17;;;;;;;36.88;19.95;;;;;;;23.95;20.71;98421.22;5089637;28;20460;-40
2021/03/07 22:59:43;;;;;;;34.47;19.77;;;;;;;23.97;20.63;98420.84;5090095;28;20419;-40
2021/03/07 23:02:08;;;;;;;37.00;20.38;;;;;;;23.98;20.64;98426.09;5088062;28;20038;-41
2021/03/07 23:04:33;;;;;;;37.30;20.00;;;;;;;24.01;20.56;98422.50;5080237;28;20073;-41
2021/03/07 23:06:59;;;;;;;36.92;20.10;;;;;;;24.02;20.62;98421.31;5085235;28;20107;-43
2021/03/07 23:09:25;;;;;;;37.67;20.70;;;;;;;24.05;20.43;98419.72;5085538;28;20040;-41
2021/03/07 23:11:50;;;;;;;37.05;20.23;;;;;;;24.08;20.55;98416.16;5085399;28;20457;-39
2021/03/07 23:14:16;;;;;;;39.03;21.10;;;;;;;24.11;20.49;98414.59;5090254;28;20031;-42
2021/03/07 23:16:41;;;;;;;36.13;20.45;;;;;;;24.13;20.57;98413.00;5097458;28;20037;-41
2021/03/07 23:19:07;;;;;;;34.67;20.40;;;;;;;24.15;20.66;98409.81;5087491;28;20024;-41
2021/03/07 23:21:33;;;;;;;36.15;20.70;;;;;;;24.17;20.58;98410.22;5092533;28;20024;-41
2021/03/07 23:23:58;;;;;;;37.67;21.55;;;;;;;24.18;20.60;98407.03;5094312;28;20032;-45
2021/03/07 23:26:23;;;;;;;35.00;20.08;;;;;;;24.19;20.59;98405.84;5090925;28;20020;-39
2021/03/07 23:28:49;;;;;;;38.78;19.88;;;;;;;24.20;20.43;98406.66;5083054;28;20034;-41
2021/03/07 23:31:14;;;;;;;34.10;19.52;;;;;;;24.20;20.39;98407.44;5081162;28;20074;-40
2021/03/07 23:33:40;;;;;;;36.10;19.35;;;;;;;24.20;20.47;98413.06;5090330;28;20027;-41
2021/03/07 23:36:05;;;;;;;31.90;19.20;;;;;;;24.21;20.50;98413.88;5091083;28;20032;-41
2021/03/07 23:38:31;;;;;;;33.75;17.98;;;;;;;24.21;20.48;98406.25;5088002;28;20030;-40
2021/03/07 23:40:57;;;;;;;31.80;18.35;;;;;;;24.20;20.64;98406.66;5088014;28;20032;-41
2021/03/07 23:43:23;;;;;;;32.70;18.40;;;;;;;24.20;20.54;98399.03;5087198;28;20069;-41
2021/03/07 23:45:48;;;;;;;31.95;18.02;;;;;;;24.19;20.54;98405.84;5089451;28;20052;-41
2021/03/07 23:48:13;;;;;;;30.13;18.05;;;;;;;24.19;20.55;98399.44;5090155;28;20043;-44
2021/03/07 23:50:46;;;;;;;29.48;16.80;;;;;;;24.16;20.49;98398.22;5094805;28;20031;-40
2021/03/07 23:53:11;;;;;;;31.10;16.95;;;;;;;24.16;20.50;98400.22;5094260;28;20020;-40
2021/03/07 23:55:37;;;;;;;29.42;16.50;;;;;;;24.14;20.65;98403.41;5095108;28;20487;-41
2021/03/07 23:58:03;;;;;;;28.45;16.65;;;;;;;24.14;20.67;98409.00;5091687;28;20028;-41
